createdAt,value
2022-10-07T00:00:27.281Z,5.43
2022-10-07T00:02:53.841Z,8.13
2022-10-07T00:05:20.364Z,9.50
2022-10-07T00:07:47.188Z,9.65
2022-10-07T00:10:14.039Z,7.10
2022-10-07T00:12:40.621Z,5.47
2022-10-07T00:15:07.490Z,9.45
2022-10-07T00:17:34.139Z,5.32
2022-10-07T00:20:00.841Z,8.55
2022-10-07T00:22:27.439Z,6.80
2022-10-07T00:24:54.044Z,4.70
2022-10-07T00:27:20.619Z,7.75
2022-10-07T00:29:47.206Z,4.38
2022-10-07T00:32:14.013Z,5.75
2022-10-07T00:34:40.649Z,6.10
2022-10-07T00:37:07.252Z,7.45
2022-10-07T00:39:33.865Z,7.20
2022-10-07T00:42:00.437Z,11.88
2022-10-07T00:44:36.155Z,10.73
2022-10-07T00:47:04.843Z,6.60
2022-10-07T00:49:40.750Z,10.52
2022-10-07T00:52:07.777Z,3.03
2022-10-07T00:54:34.791Z,6.07
2022-10-07T00:57:01.416Z,9.35
2022-10-07T00:59:28.038Z,6.57
2022-10-07T01:01:54.628Z,3.20
2022-10-07T01:04:21.212Z,7.63
2022-10-07T01:06:47.942Z,7.45
2022-10-07T01:09:14.784Z,4.63
2022-10-07T01:12:10.606Z,6.90
2022-10-07T01:14:38.591Z,5.72
2022-10-07T01:17:11.001Z,8.65
2022-10-07T01:19:37.641Z,6.80
2022-10-07T01:22:21.415Z,6.32
2022-10-07T01:24:56.832Z,6.00
2022-10-07T01:27:24.819Z,8.05
2022-10-07T01:29:57.442Z,6.90
2022-10-07T01:32:44.426Z,13.75
2022-10-07T01:35:13.860Z,6.28
2022-10-07T01:37:43.638Z,7.32
2022-10-07T01:40:13.172Z,7.95
2022-10-07T01:42:40.303Z,7.63
2022-10-07T01:45:08.814Z,4.18
2022-10-07T01:47:35.480Z,5.82
2022-10-07T01:50:02.249Z,8.90
2022-10-07T01:52:52.991Z,7.38
2022-10-07T01:55:29.489Z,6.57
2022-10-07T01:58:02.198Z,6.50
2022-10-07T02:00:29.235Z,8.63
2022-10-07T02:03:09.692Z,6.30
2022-10-07T02:05:43.234Z,5.55
2022-10-07T02:08:12.907Z,5.32
2022-10-07T02:10:56.245Z,5.95
2022-10-07T02:13:41.675Z,7.65
2022-10-07T02:16:21.805Z,3.08
2022-10-07T02:18:52.350Z,9.38
2022-10-07T02:21:22.036Z,7.53
2022-10-07T02:23:49.608Z,3.83
2022-10-07T02:26:19.475Z,4.82
2022-10-07T02:28:47.908Z,8.68
2022-10-07T02:31:18.176Z,9.00
2022-10-07T02:33:47.104Z,5.60
2022-10-07T02:36:16.817Z,7.68
2022-10-07T02:38:44.497Z,5.88
2022-10-07T02:41:14.497Z,5.88
2022-10-07T02:43:50.702Z,4.65
2022-10-07T02:46:24.965Z,5.68
2022-10-07T02:48:52.027Z,6.85
2022-10-07T02:51:21.417Z,6.93
2022-10-07T02:53:51.105Z,5.15
2022-10-07T02:56:20.387Z,5.55
2022-10-07T02:58:47.721Z,5.60
2022-10-07T03:01:18.538Z,7.50
2022-10-07T03:03:45.797Z,6.15
2022-10-07T03:06:13.252Z,5.75
2022-10-07T03:08:40.814Z,5.20
2022-10-07T03:11:07.798Z,5.22
2022-10-07T03:13:35.285Z,4.60
2022-10-07T03:16:05.645Z,6.55
2022-10-07T03:18:32.598Z,10.02
2022-10-07T03:21:22.691Z,8.68
2022-10-07T03:23:52.805Z,5.38
2022-10-07T03:26:21.728Z,7.72
2022-10-07T03:28:49.079Z,7.75
2022-10-07T03:31:16.237Z,6.82
2022-10-07T03:33:47.338Z,9.32
2022-10-07T03:36:14.043Z,9.38
2022-10-07T03:38:43.146Z,6.72
2022-10-07T03:41:11.150Z,7.93
2022-10-07T03:43:38.478Z,6.18
2022-10-07T03:46:06.449Z,5.78
2022-10-07T03:48:35.786Z,4.85
2022-10-07T03:51:02.718Z,9.05
2022-10-07T03:53:31.430Z,6.38
2022-10-07T03:56:00.565Z,5.38
2022-10-07T03:58:28.592Z,7.05
2022-10-07T04:01:11.825Z,5.88
2022-10-07T04:03:43.898Z,8.32
2022-10-07T04:06:10.525Z,3.42
2022-10-07T04:08:38.956Z,6.47
2022-10-07T04:11:07.176Z,9.10
2022-10-07T04:13:36.560Z,9.95
2022-10-07T04:16:09.018Z,5.25
2022-10-07T04:18:36.415Z,4.38
2022-10-07T04:21:03.158Z,8.85
2022-10-07T04:23:32.094Z,7.57
2022-10-07T04:25:58.794Z,8.15
2022-10-07T04:28:26.708Z,5.78
2022-10-07T04:31:03.327Z,16.75
2022-10-07T04:33:34.641Z,9.82
2022-10-07T04:36:05.661Z,9.32
2022-10-07T04:38:33.014Z,12.00
2022-10-07T04:41:03.730Z,9.75
2022-10-07T04:43:34.021Z,4.43
2022-10-07T04:46:14.730Z,4.75
2022-10-07T04:48:47.496Z,8.52
2022-10-07T04:51:17.862Z,6.88
2022-10-07T04:53:56.505Z,5.43
2022-10-07T04:56:29.625Z,5.47
2022-10-07T04:58:56.389Z,6.93
2022-10-07T05:01:23.970Z,7.20
2022-10-07T05:03:50.885Z,9.52
2022-10-07T05:06:18.461Z,4.40
2022-10-07T05:08:45.749Z,6.35
2022-10-07T05:11:13.527Z,5.60
2022-10-07T05:13:47.546Z,7.60
2022-10-07T05:16:14.791Z,6.68
2022-10-07T05:18:42.042Z,8.20
2022-10-07T05:21:11.638Z,8.43
2022-10-07T05:23:42.479Z,4.90
2022-10-07T05:26:14.232Z,11.82
2022-10-07T05:28:45.611Z,7.72
2022-10-07T05:31:15.290Z,9.75
2022-10-07T05:33:47.149Z,15.70
2022-10-07T05:36:14.253Z,11.02
2022-10-07T05:38:42.481Z,12.52
2022-10-07T05:41:10.983Z,9.68
2022-10-07T05:43:42.205Z,12.45
2022-10-07T05:46:13.490Z,11.00
2022-10-07T05:48:48.393Z,19.88
2022-10-07T05:51:15.868Z,18.38
2022-10-07T05:53:43.096Z,9.95
2022-10-07T05:56:12.141Z,9.52
2022-10-07T05:58:39.217Z,10.52
2022-10-07T06:01:14.192Z,10.52
2022-10-07T06:03:42.617Z,9.68
2022-10-07T06:06:10.072Z,13.43
2022-10-07T06:08:37.072Z,12.10
2022-10-07T06:11:23.047Z,13.73
2022-10-07T06:13:52.713Z,13.13
2022-10-07T06:16:19.806Z,13.88
2022-10-07T06:18:50.510Z,12.00
2022-10-07T06:21:19.271Z,9.38
2022-10-07T06:23:51.319Z,12.05
2022-10-07T06:26:21.720Z,13.60
2022-10-07T06:28:48.693Z,18.52
2022-10-07T06:31:22.228Z,12.75
2022-10-07T06:33:49.559Z,13.25
2022-10-07T06:36:16.843Z,16.60
2022-10-07T06:38:46.142Z,20.60
2022-10-07T06:41:13.229Z,18.67
2022-10-07T06:43:40.327Z,18.67
2022-10-07T06:46:17.299Z,18.90
2022-10-07T06:48:46.670Z,24.90
2022-10-07T06:51:19.962Z,15.02
2022-10-07T06:53:51.504Z,21.75
2022-10-07T06:56:18.123Z,21.77
2022-10-07T06:58:44.759Z,16.85
2022-10-07T07:01:14.292Z,16.77
2022-10-07T07:03:41.654Z,22.70
2022-10-07T07:06:09.167Z,22.85
2022-10-07T07:08:35.913Z,18.00
2022-10-07T07:11:27.433Z,17.83
2022-10-07T07:13:56.078Z,26.98
2022-10-07T07:16:24.420Z,19.40
2022-10-07T07:18:55.009Z,18.52
2022-10-07T07:21:23.540Z,25.40
2022-10-07T07:23:53.047Z,23.15
2022-10-07T07:26:20.496Z,25.20
2022-10-07T07:28:59.152Z,24.67
2022-10-07T07:31:29.442Z,21.65
2022-10-07T07:33:56.840Z,23.60
2022-10-07T07:36:24.605Z,21.65
2022-10-07T07:46:34.229Z,22.45
2022-10-07T07:49:00.995Z,28.30
2022-10-07T07:51:27.715Z,22.35
2022-10-07T07:53:55.289Z,22.20
2022-10-07T07:56:22.047Z,21.33
2022-10-07T07:58:48.896Z,26.15
2022-10-07T08:01:17.805Z,20.70
2022-10-07T08:03:46.738Z,18.83
2022-10-07T08:06:15.531Z,22.23
2022-10-07T08:08:43.219Z,16.92
2022-10-07T08:11:12.254Z,19.77
2022-10-07T08:13:41.298Z,19.98
2022-10-07T08:16:14.469Z,21.10
2022-10-07T08:18:43.138Z,24.98
2022-10-07T08:21:10.762Z,21.95
2022-10-07T08:23:38.391Z,19.85
2022-10-07T08:26:06.106Z,23.73
2022-10-07T08:28:32.961Z,17.05
2022-10-07T08:31:07.280Z,18.58
2022-10-07T08:33:35.494Z,21.13
2022-10-07T08:36:03.951Z,23.50
2022-10-07T08:38:31.765Z,19.95
2022-10-07T08:41:05.506Z,21.38
2022-10-07T08:43:32.891Z,22.33
2022-10-07T08:46:00.682Z,23.90
2022-10-07T08:48:30.582Z,21.13
2022-10-07T08:50:57.183Z,19.25
2022-10-07T08:53:29.309Z,21.55
2022-10-07T08:56:00.822Z,22.42
2022-10-07T08:58:40.883Z,23.45
2022-10-07T09:01:27.927Z,25.05
2022-10-07T09:04:03.675Z,26.05
2022-10-07T09:06:33.304Z,28.95
2022-10-07T09:09:02.912Z,25.27
2022-10-07T09:11:30.697Z,21.15
2022-10-07T09:14:04.615Z,24.67
2022-10-07T09:16:41.789Z,25.48
2022-10-07T09:19:11.722Z,28.33
2022-10-07T09:21:48.029Z,21.88
2022-10-07T09:24:20.394Z,25.38
2022-10-07T09:26:47.341Z,21.17
2022-10-07T09:29:13.996Z,21.60
2022-10-07T09:31:40.604Z,26.60
2022-10-07T09:34:13.276Z,20.13
2022-10-07T09:37:01.275Z,32.85
2022-10-07T09:39:28.414Z,22.08
2022-10-07T09:41:55.005Z,24.35
2022-10-07T09:44:25.948Z,26.35
2022-10-07T09:47:12.556Z,26.52
2022-10-07T09:49:41.869Z,29.10
2022-10-07T09:52:19.391Z,30.30
2022-10-07T09:54:47.639Z,27.73
2022-10-07T09:57:34.711Z,24.48
2022-10-07T10:00:13.688Z,25.70
2022-10-07T10:02:41.551Z,26.15
2022-10-07T10:05:22.620Z,28.88
2022-10-07T10:07:52.961Z,23.77
2022-10-07T10:10:24.516Z,26.45
2022-10-07T10:12:52.960Z,27.85
2022-10-07T10:15:27.617Z,27.02
2022-10-07T10:17:57.060Z,28.33
2022-10-07T10:20:23.630Z,27.90
2022-10-07T10:22:50.833Z,24.67
2022-10-07T10:25:46.453Z,27.55
2022-10-07T10:28:16.737Z,26.52
2022-10-07T10:30:49.950Z,29.23
2022-10-07T10:33:23.175Z,26.35
2022-10-07T10:36:02.191Z,19.83
2022-10-07T10:38:50.104Z,21.98
2022-10-07T10:41:24.401Z,20.65
2022-10-07T10:43:58.082Z,20.52
2022-10-07T10:46:36.822Z,24.55
2022-10-07T10:49:10.907Z,24.67
2022-10-07T10:51:40.400Z,20.70
2022-10-07T10:54:22.680Z,22.23
2022-10-07T10:56:55.461Z,24.88
2022-10-07T10:59:27.832Z,22.05
2022-10-07T11:02:01.014Z,24.45
2022-10-07T11:04:50.225Z,20.77
2022-10-07T11:07:23.526Z,26.80
2022-10-07T11:10:02.237Z,19.73
2022-10-07T11:12:37.326Z,21.27
2022-10-07T11:15:30.105Z,23.15
2022-10-07T11:17:59.800Z,21.55
2022-10-07T11:20:40.983Z,20.90
2022-10-07T11:23:21.348Z,23.33
2022-10-07T11:25:52.786Z,20.45
2022-10-07T11:28:29.515Z,23.70
2022-10-07T11:31:06.649Z,20.80
2022-10-07T11:33:37.132Z,26.25
2022-10-07T11:36:14.473Z,21.80
2022-10-07T11:38:42.076Z,19.95
2022-10-07T11:41:13.949Z,19.38
2022-10-07T11:43:44.679Z,23.17
2022-10-07T11:46:30.348Z,22.95
2022-10-07T11:49:15.930Z,20.98
2022-10-07T11:51:50.486Z,23.15
2022-10-07T11:54:18.105Z,26.33
2022-10-07T11:56:45.875Z,27.90
2022-10-07T11:59:28.256Z,20.92
2022-10-07T12:01:55.267Z,20.65
2022-10-07T12:04:30.814Z,25.83
2022-10-07T12:07:16.360Z,21.70
2022-10-07T12:10:01.844Z,22.17
2022-10-07T12:12:44.746Z,21.63
2022-10-07T12:15:30.609Z,20.13
2022-10-07T12:18:06.057Z,21.05
2022-10-07T12:20:45.067Z,22.10
2022-10-07T12:23:21.962Z,24.17
2022-10-07T12:25:55.299Z,21.98
2022-10-07T12:28:35.452Z,22.00
2022-10-07T12:31:06.841Z,20.73
2022-10-07T12:33:45.809Z,23.38
2022-10-07T12:36:18.515Z,23.73
2022-10-07T12:38:46.177Z,24.98
2022-10-07T12:41:24.352Z,26.73
2022-10-07T12:44:13.928Z,22.63
2022-10-07T12:46:40.574Z,25.17
2022-10-07T12:49:21.870Z,19.40
2022-10-07T12:51:49.400Z,21.95
2022-10-07T12:54:20.487Z,23.70
2022-10-07T12:56:48.504Z,20.10
2022-10-07T12:59:49.651Z,22.63
2022-10-07T13:02:31.712Z,18.13
2022-10-07T13:05:18.013Z,21.88
2022-10-07T13:07:59.707Z,21.80
2022-10-07T13:10:32.265Z,21.63
2022-10-07T13:13:04.273Z,22.65
2022-10-07T13:15:46.224Z,18.90
2022-10-07T13:18:19.048Z,19.80
2022-10-07T13:20:54.668Z,21.45
2022-10-07T13:23:26.763Z,18.00
2022-10-07T13:25:55.057Z,18.52
2022-10-07T13:28:23.182Z,19.15
2022-10-07T13:30:51.009Z,18.88
2022-10-07T13:33:26.341Z,20.35
2022-10-07T13:36:06.496Z,17.40
2022-10-07T13:38:34.122Z,20.70
2022-10-07T13:41:03.389Z,17.83
2022-10-07T13:43:31.945Z,17.35
2022-10-07T13:46:00.283Z,17.23
2022-10-07T13:48:29.339Z,25.40
2022-10-07T13:50:58.523Z,19.33
2022-10-07T13:53:35.529Z,22.55
2022-10-07T13:56:07.021Z,21.30
2022-10-07T13:58:36.814Z,19.40
2022-10-07T14:01:04.926Z,17.65
2022-10-07T14:03:31.665Z,20.60
2022-10-07T14:05:58.365Z,16.27
2022-10-07T14:08:27.876Z,19.80
2022-10-07T14:10:57.304Z,19.02
2022-10-07T14:13:24.109Z,21.25
2022-10-07T14:15:53.435Z,20.67
2022-10-07T14:18:20.090Z,19.10
2022-10-07T14:21:06.433Z,20.77
2022-10-07T14:23:34.443Z,21.63
2022-10-07T14:26:05.413Z,23.33
2022-10-07T14:28:32.106Z,16.38
2022-10-07T14:31:23.710Z,18.77
2022-10-07T14:34:09.021Z,21.13
2022-10-07T14:36:36.228Z,18.77
2022-10-07T14:39:30.674Z,17.48
2022-10-07T14:41:57.353Z,16.25
2022-10-07T14:44:24.075Z,20.83
2022-10-07T14:46:50.706Z,16.88
2022-10-07T14:49:18.273Z,16.95
2022-10-07T14:51:44.954Z,18.35
2022-10-07T14:54:12.237Z,17.75
2022-10-07T14:56:38.857Z,18.13
2022-10-07T14:59:09.585Z,19.63
2022-10-07T15:01:36.201Z,22.30
2022-10-07T15:04:02.999Z,22.23
2022-10-07T15:06:29.751Z,17.17
2022-10-07T15:08:56.871Z,19.50
2022-10-07T15:11:23.503Z,17.20
2022-10-07T15:13:50.167Z,16.63
2022-10-07T15:16:18.062Z,20.83
2022-10-07T15:18:49.573Z,20.70
2022-10-07T15:21:18.847Z,23.48
2022-10-07T15:23:49.404Z,24.83
2022-10-07T15:26:15.979Z,17.10
2022-10-07T15:28:42.705Z,20.83
2022-10-07T15:31:09.740Z,22.13
2022-10-07T15:33:37.155Z,18.55
2022-10-07T15:36:04.078Z,21.25
2022-10-07T15:38:31.282Z,23.08
2022-10-07T15:40:59.591Z,19.98
2022-10-07T15:43:26.392Z,23.00
2022-10-07T15:45:53.129Z,21.73
2022-10-07T15:48:23.080Z,21.05
2022-10-07T15:50:50.626Z,22.17
2022-10-07T15:53:18.306Z,21.77
2022-10-07T15:55:52.082Z,21.23
2022-10-07T15:58:19.112Z,21.83
2022-10-07T16:01:05.979Z,19.73
2022-10-07T16:03:34.040Z,22.23
2022-10-07T16:06:02.210Z,21.77
2022-10-07T16:08:29.407Z,26.25
2022-10-07T16:10:56.005Z,28.50
2022-10-07T16:13:23.157Z,21.40
2022-10-07T16:15:56.756Z,23.63
2022-10-07T16:18:23.376Z,26.17
2022-10-07T16:20:49.990Z,25.85
2022-10-07T16:23:16.590Z,24.02
2022-10-07T16:25:43.196Z,22.25
2022-10-07T16:28:28.661Z,20.90
2022-10-07T16:30:55.399Z,19.45
2022-10-07T16:33:21.981Z,23.65
2022-10-07T16:35:48.601Z,23.35
2022-10-07T16:38:15.165Z,21.02
2022-10-07T16:40:50.735Z,21.73
2022-10-07T16:43:17.346Z,20.48
2022-10-07T16:45:44.364Z,18.38
2022-10-07T16:48:12.147Z,23.90
2022-10-07T16:50:38.755Z,21.67
2022-10-07T16:53:05.449Z,27.80
2022-10-07T16:55:33.827Z,20.00
2022-10-07T16:58:00.419Z,18.13
2022-10-07T17:00:27.221Z,18.75
2022-10-07T17:02:53.810Z,30.67
2022-10-07T17:05:20.436Z,24.92
2022-10-07T17:07:48.068Z,21.38
2022-10-07T17:10:15.003Z,25.70
2022-10-07T17:12:41.562Z,20.08
2022-10-07T17:15:09.046Z,24.25
2022-10-07T17:17:35.680Z,20.92
2022-10-07T17:20:02.301Z,21.73
2022-10-07T17:22:28.881Z,21.40
2022-10-07T17:24:55.524Z,19.73
2022-10-07T17:27:22.233Z,20.85
2022-10-07T17:29:48.792Z,20.15
2022-10-07T17:32:15.395Z,21.02
2022-10-07T17:34:45.289Z,19.13
2022-10-07T17:37:12.230Z,23.23
2022-10-07T17:39:38.850Z,20.50
2022-10-07T17:42:05.477Z,17.70
2022-10-07T17:44:32.101Z,22.52
2022-10-07T17:47:03.469Z,17.90
2022-10-07T17:49:30.443Z,19.52
2022-10-07T17:51:57.467Z,18.10
2022-10-07T17:54:24.065Z,20.05
2022-10-07T17:56:50.691Z,19.80
2022-10-07T17:59:17.236Z,20.38
2022-10-07T18:01:44.577Z,21.48
2022-10-07T18:04:13.420Z,19.23
2022-10-07T18:06:42.810Z,20.05
2022-10-07T18:09:10.038Z,19.17
2022-10-07T18:11:55.276Z,25.67
2022-10-07T18:14:41.104Z,20.35
2022-10-07T18:17:08.715Z,22.17
2022-10-07T18:19:35.590Z,20.25
2022-10-07T18:22:02.977Z,20.60
2022-10-07T18:24:29.664Z,20.70
2022-10-07T18:26:58.833Z,18.98
2022-10-07T18:29:32.806Z,18.42
2022-10-07T18:31:59.889Z,24.30
2022-10-07T18:34:26.697Z,19.35
2022-10-07T18:36:56.503Z,16.60
2022-10-07T18:39:24.404Z,20.95
2022-10-07T18:41:51.430Z,18.55
2022-10-07T18:44:18.066Z,18.27
2022-10-07T18:46:44.778Z,17.85
2022-10-07T18:49:13.866Z,18.70
2022-10-07T18:51:41.031Z,19.02
2022-10-07T18:54:07.742Z,15.38
2022-10-07T18:56:38.451Z,19.20
2022-10-07T18:59:07.855Z,21.40
2022-10-07T19:01:34.597Z,14.75
2022-10-07T19:04:01.905Z,19.17
2022-10-07T19:06:29.993Z,18.20
2022-10-07T19:08:57.578Z,16.02
2022-10-07T19:11:24.637Z,21.15
2022-10-07T19:13:53.407Z,15.32
2022-10-07T19:16:24.711Z,20.90
2022-10-07T19:18:53.128Z,23.33
2022-10-07T19:21:20.407Z,18.65
2022-10-07T19:23:47.716Z,16.83
2022-10-07T19:26:17.757Z,17.38
2022-10-07T19:28:47.719Z,20.60
2022-10-07T19:31:35.170Z,16.67
2022-10-07T19:34:03.349Z,20.95
2022-10-07T19:36:31.098Z,19.75
2022-10-07T19:38:58.554Z,19.63
2022-10-07T19:41:27.339Z,16.30
2022-10-07T19:43:54.286Z,15.63
2022-10-07T19:46:21.590Z,17.17
2022-10-07T19:48:48.630Z,16.40
2022-10-07T19:51:16.941Z,21.75
2022-10-07T19:53:47.092Z,19.00
2022-10-07T19:56:15.801Z,17.45
2022-10-07T19:58:53.530Z,18.48
2022-10-07T20:01:21.452Z,17.17
2022-10-07T20:03:48.888Z,17.45
2022-10-07T20:06:15.975Z,21.92
2022-10-07T20:08:43.700Z,16.30
2022-10-07T20:11:10.948Z,19.45
2022-10-07T20:13:37.818Z,21.00
2022-10-07T20:16:05.930Z,22.55
2022-10-07T20:18:33.317Z,20.02
2022-10-07T20:21:05.587Z,20.30
2022-10-07T20:23:33.377Z,19.20
2022-10-07T20:26:05.240Z,18.17
2022-10-07T20:28:32.147Z,27.25
2022-10-07T20:31:02.802Z,18.35
2022-10-07T20:33:29.373Z,21.10
2022-10-07T20:35:55.957Z,18.02
2022-10-07T20:38:22.564Z,20.92
2022-10-07T20:41:10.875Z,20.02
2022-10-07T20:43:37.478Z,17.55
2022-10-07T20:46:04.105Z,18.05
2022-10-07T20:48:32.249Z,23.33
2022-10-07T20:51:03.201Z,20.15
2022-10-07T20:53:29.817Z,24.83
2022-10-07T20:55:56.453Z,21.17
2022-10-07T20:58:23.062Z,20.65
2022-10-07T21:00:49.721Z,22.30
2022-10-07T21:03:18.253Z,20.40
2022-10-07T21:05:44.942Z,21.65
2022-10-07T21:08:11.558Z,19.65
2022-10-07T21:10:38.202Z,21.23
2022-10-07T21:13:05.183Z,23.25
2022-10-07T21:15:31.751Z,18.83
2022-10-07T21:17:58.354Z,20.80
2022-10-07T21:20:25.004Z,22.35
2022-10-07T21:22:54.203Z,21.20
2022-10-07T21:25:20.776Z,19.13
2022-10-07T21:27:47.403Z,29.98
2022-10-07T21:30:14.139Z,18.95
2022-10-07T21:32:41.298Z,19.73
2022-10-07T21:35:08.165Z,21.02
2022-10-07T21:37:34.938Z,20.65
2022-10-07T21:40:01.680Z,21.02
2022-10-07T21:42:28.999Z,22.98
2022-10-07T21:44:55.833Z,25.27
2022-10-07T21:47:22.493Z,20.45
2022-10-07T21:49:49.191Z,20.20
2022-10-07T21:52:15.767Z,23.48
2022-10-07T21:54:42.442Z,25.08
2022-10-07T21:57:09.087Z,21.52
2022-10-07T21:59:35.725Z,20.92
2022-10-07T22:02:02.616Z,19.85
2022-10-07T22:04:30.806Z,23.45
2022-10-07T22:07:16.138Z,20.50
2022-10-07T22:09:42.949Z,24.63
2022-10-07T22:12:09.534Z,23.52
2022-10-07T22:14:37.174Z,21.05
2022-10-07T22:17:04.433Z,23.42
2022-10-07T22:19:31.005Z,21.25
2022-10-07T22:21:57.683Z,19.33
2022-10-07T22:24:24.267Z,19.20
2022-10-07T22:26:51.487Z,24.92
2022-10-07T22:29:18.921Z,17.23
2022-10-07T22:31:45.659Z,26.67
2022-10-07T22:34:31.161Z,19.08
2022-10-07T22:37:00.675Z,19.35
2022-10-07T22:39:28.682Z,19.48
2022-10-07T22:41:55.490Z,20.67
2022-10-07T22:44:22.134Z,21.52
2022-10-07T22:46:48.822Z,23.15
2022-10-07T22:49:15.407Z,23.92
2022-10-07T22:51:42.581Z,22.25
2022-10-07T22:54:11.110Z,31.13
2022-10-07T22:56:37.746Z,20.55
2022-10-07T22:59:04.532Z,23.65
2022-10-07T23:01:34.122Z,21.98
2022-10-07T23:04:02.999Z,25.75
2022-10-07T23:06:32.391Z,22.85
2022-10-07T23:08:59.422Z,24.02
2022-10-07T23:11:26.980Z,21.70
2022-10-07T23:13:54.612Z,23.83
2022-10-07T23:16:22.335Z,25.80
2022-10-07T23:18:50.385Z,23.90
2022-10-07T23:21:18.174Z,28.25
2022-10-07T23:23:46.461Z,25.65
2022-10-07T23:26:18.803Z,30.00
2022-10-07T23:28:46.037Z,27.92
2022-10-07T23:31:19.901Z,25.83
2022-10-07T23:33:47.456Z,31.88
2022-10-07T23:36:15.005Z,28.40
2022-10-07T23:38:44.785Z,29.50
2022-10-07T23:41:12.210Z,34.22
2022-10-07T23:43:38.904Z,33.00
2022-10-07T23:46:06.799Z,33.72
2022-10-07T23:48:35.083Z,33.42
2022-10-07T23:51:05.926Z,29.17
2022-10-07T23:53:33.462Z,30.55
2022-10-07T23:56:00.151Z,30.75
2022-10-07T23:58:27.783Z,34.10
